sensor_id;sensor_type;location;lat;lon;timestamp;P1;durP1;ratioP1;P2;durP2;ratioP2
12878;SDS011;20617;49.476;10.986;2023-06-26T00:00:16;6.88;;;6.10;;
12878;SDS011;20617;49.476;10.986;2023-06-26T00:02:23;8.25;;;7.45;;
12878;SDS011;20617;49.476;10.986;2023-06-26T00:06:33;8.05;;;7.25;;
12878;SDS011;20617;49.476;10.986;2023-06-26T00:08:41;8.23;;;7.43;;
12878;SDS011;20617;49.476;10.986;2023-06-26T00:10:46;8.15;;;7.35;;
12878;SDS011;20617;49.476;10.986;2023-06-26T00:12:55;7.43;;;6.65;;
12878;SDS011;20617;49.476;10.986;2023-06-26T00:15:00;8.27;;;6.78;;
12878;SDS011;20617;49.476;10.986;2023-06-26T00:17:06;6.85;;;6.22;;
12878;SDS011;20617;49.476;10.986;2023-06-26T00:21:15;8.07;;;7.20;;
12878;SDS011;20617;49.476;10.986;2023-06-26T00:25:25;9.43;;;7.40;;
12878;SDS011;20617;49.476;10.986;2023-06-26T00:27:30;8.85;;;7.20;;
12878;SDS011;20617;49.476;10.986;2023-06-26T00:29:38;7.60;;;6.85;;
12878;SDS011;20617;49.476;10.986;2023-06-26T00:31:43;7.60;;;6.90;;
12878;SDS011;20617;49.476;10.986;2023-06-26T00:35:53;8.15;;;7.20;;
12878;SDS011;20617;49.476;10.986;2023-06-26T00:37:58;7.78;;;6.85;;
12878;SDS011;20617;49.476;10.986;2023-06-26T00:40:04;9.65;;;7.22;;
12878;SDS011;20617;49.476;10.986;2023-06-26T00:42:10;9.77;;;7.22;;
12878;SDS011;20617;49.476;10.986;2023-06-26T00:44:15;7.88;;;7.10;;
12878;SDS011;20617;49.476;10.986;2023-06-26T00:46:22;8.35;;;7.50;;
12878;SDS011;20617;49.476;10.986;2023-06-26T00:48:27;8.38;;;7.43;;
12878;SDS011;20617;49.476;10.986;2023-06-26T00:50:33;8.30;;;7.50;;
12878;SDS011;20617;49.476;10.986;2023-06-26T00:52:38;8.20;;;7.03;;
12878;SDS011;20617;49.476;10.986;2023-06-26T00:54:43;8.90;;;6.80;;
12878;SDS011;20617;49.476;10.986;2023-06-26T00:56:51;8.93;;;7.32;;
12878;SDS011;20617;49.476;10.986;2023-06-26T00:58:56;7.30;;;6.50;;
12878;SDS011;20617;49.476;10.986;2023-06-26T01:01:01;7.72;;;6.93;;
12878;SDS011;20617;49.476;10.986;2023-06-26T01:03:10;8.43;;;7.53;;
12878;SDS011;20617;49.476;10.986;2023-06-26T01:05:16;8.10;;;7.30;;
12878;SDS011;20617;49.476;10.986;2023-06-26T01:07:23;7.90;;;6.60;;
12878;SDS011;20617;49.476;10.986;2023-06-26T01:09:29;8.55;;;7.03;;
12878;SDS011;20617;49.476;10.986;2023-06-26T01:11:36;8.65;;;7.15;;
12878;SDS011;20617;49.476;10.986;2023-06-26T01:13:41;7.10;;;6.05;;
12878;SDS011;20617;49.476;10.986;2023-06-26T01:15:48;7.70;;;6.90;;
12878;SDS011;20617;49.476;10.986;2023-06-26T01:17:54;7.18;;;6.47;;
12878;SDS011;20617;49.476;10.986;2023-06-26T01:20:08;8.85;;;7.95;;
12878;SDS011;20617;49.476;10.986;2023-06-26T01:22:17;8.23;;;7.18;;
12878;SDS011;20617;49.476;10.986;2023-06-26T01:24:31;8.87;;;7.97;;
12878;SDS011;20617;49.476;10.986;2023-06-26T01:26:41;10.00;;;7.78;;
12878;SDS011;20617;49.476;10.986;2023-06-26T01:28:49;8.60;;;7.38;;
12878;SDS011;20617;49.476;10.986;2023-06-26T01:30:55;8.88;;;7.97;;
12878;SDS011;20617;49.476;10.986;2023-06-26T01:33:00;8.07;;;7.38;;
12878;SDS011;20617;49.476;10.986;2023-06-26T01:35:07;9.30;;;7.88;;
12878;SDS011;20617;49.476;10.986;2023-06-26T01:37:14;9.07;;;7.13;;
12878;SDS011;20617;49.476;10.986;2023-06-26T01:41:25;7.82;;;7.03;;
12878;SDS011;20617;49.476;10.986;2023-06-26T01:43:35;11.02;;;7.38;;
12878;SDS011;20617;49.476;10.986;2023-06-26T01:45:46;8.02;;;7.22;;
12878;SDS011;20617;49.476;10.986;2023-06-26T01:47:54;8.27;;;6.55;;
12878;SDS011;20617;49.476;10.986;2023-06-26T01:50:03;7.43;;;6.65;;
12878;SDS011;20617;49.476;10.986;2023-06-26T01:52:16;7.90;;;7.05;;
12878;SDS011;20617;49.476;10.986;2023-06-26T01:54:26;8.35;;;7.38;;
12878;SDS011;20617;49.476;10.986;2023-06-26T01:56:38;7.80;;;7.10;;
12878;SDS011;20617;49.476;10.986;2023-06-26T01:58:47;8.00;;;6.82;;
12878;SDS011;20617;49.476;10.986;2023-06-26T02:00:56;6.75;;;6.13;;
12878;SDS011;20617;49.476;10.986;2023-06-26T02:05:08;7.43;;;6.72;;
12878;SDS011;20617;49.476;10.986;2023-06-26T02:07:13;8.30;;;7.30;;
12878;SDS011;20617;49.476;10.986;2023-06-26T02:11:23;7.75;;;6.97;;
12878;SDS011;20617;49.476;10.986;2023-06-26T02:15:35;9.20;;;7.43;;
12878;SDS011;20617;49.476;10.986;2023-06-26T02:17:42;8.10;;;7.18;;
12878;SDS011;20617;49.476;10.986;2023-06-26T02:19:50;8.05;;;6.95;;
12878;SDS011;20617;49.476;10.986;2023-06-26T02:21:54;7.50;;;6.70;;
12878;SDS011;20617;49.476;10.986;2023-06-26T02:23:59;7.63;;;6.82;;
12878;SDS011;20617;49.476;10.986;2023-06-26T02:26:07;7.45;;;6.70;;
12878;SDS011;20617;49.476;10.986;2023-06-26T02:28:12;7.32;;;6.63;;
12878;SDS011;20617;49.476;10.986;2023-06-26T02:32:25;7.70;;;6.90;;
12878;SDS011;20617;49.476;10.986;2023-06-26T02:34:30;10.00;;;6.50;;
12878;SDS011;20617;49.476;10.986;2023-06-26T02:36:35;8.77;;;7.88;;
12878;SDS011;20617;49.476;10.986;2023-06-26T02:38:42;7.72;;;6.20;;
12878;SDS011;20617;49.476;10.986;2023-06-26T02:42:52;7.93;;;7.13;;
12878;SDS011;20617;49.476;10.986;2023-06-26T02:44:57;12.13;;;7.32;;
12878;SDS011;20617;49.476;10.986;2023-06-26T02:47:04;7.60;;;6.80;;
12878;SDS011;20617;49.476;10.986;2023-06-26T02:49:17;9.25;;;7.38;;
12878;SDS011;20617;49.476;10.986;2023-06-26T02:51:24;7.90;;;7.20;;
12878;SDS011;20617;49.476;10.986;2023-06-26T02:53:30;8.20;;;7.13;;
12878;SDS011;20617;49.476;10.986;2023-06-26T02:57:41;9.07;;;7.20;;
12878;SDS011;20617;49.476;10.986;2023-06-26T02:59:46;8.35;;;7.22;;
12878;SDS011;20617;49.476;10.986;2023-06-26T03:01:51;8.02;;;7.22;;
12878;SDS011;20617;49.476;10.986;2023-06-26T03:04:03;8.32;;;7.53;;
12878;SDS011;20617;49.476;10.986;2023-06-26T03:06:11;8.00;;;7.20;;
12878;SDS011;20617;49.476;10.986;2023-06-26T03:08:16;8.70;;;7.82;;
12878;SDS011;20617;49.476;10.986;2023-06-26T03:12:27;8.00;;;7.20;;
12878;SDS011;20617;49.476;10.986;2023-06-26T03:14:32;8.60;;;7.72;;
12878;SDS011;20617;49.476;10.986;2023-06-26T03:18:44;9.00;;;8.10;;
12878;SDS011;20617;49.476;10.986;2023-06-26T03:20:49;8.07;;;7.28;;
12878;SDS011;20617;49.476;10.986;2023-06-26T03:22:58;7.75;;;6.85;;
12878;SDS011;20617;49.476;10.986;2023-06-26T03:25:03;8.43;;;7.45;;
12878;SDS011;20617;49.476;10.986;2023-06-26T03:27:09;7.93;;;7.13;;
12878;SDS011;20617;49.476;10.986;2023-06-26T03:29:17;8.50;;;7.70;;
12878;SDS011;20617;49.476;10.986;2023-06-26T03:31:23;9.25;;;8.00;;
12878;SDS011;20617;49.476;10.986;2023-06-26T03:35:33;10.23;;;8.05;;
12878;SDS011;20617;49.476;10.986;2023-06-26T03:37:38;8.45;;;7.53;;
12878;SDS011;20617;49.476;10.986;2023-06-26T03:41:51;7.95;;;7.15;;
12878;SDS011;20617;49.476;10.986;2023-06-26T03:43:57;8.95;;;8.05;;
12878;SDS011;20617;49.476;10.986;2023-06-26T03:46:09;9.15;;;8.25;;
12878;SDS011;20617;49.476;10.986;2023-06-26T03:48:14;8.20;;;7.40;;
12878;SDS011;20617;49.476;10.986;2023-06-26T03:50:20;7.65;;;6.82;;
12878;SDS011;20617;49.476;10.986;2023-06-26T03:54:32;8.32;;;7.30;;
12878;SDS011;20617;49.476;10.986;2023-06-26T03:56:40;8.65;;;7.85;;
12878;SDS011;20617;49.476;10.986;2023-06-26T03:58:45;9.32;;;7.70;;
12878;SDS011;20617;49.476;10.986;2023-06-26T04:02:56;9.07;;;7.90;;
12878;SDS011;20617;49.476;10.986;2023-06-26T04:05:01;8.02;;;7.22;;
12878;SDS011;20617;49.476;10.986;2023-06-26T04:07:08;9.73;;;7.78;;
12878;SDS011;20617;49.476;10.986;2023-06-26T04:11:18;8.93;;;7.33;;
12878;SDS011;20617;49.476;10.986;2023-06-26T04:13:28;9.90;;;8.23;;
12878;SDS011;20617;49.476;10.986;2023-06-26T04:15:33;9.70;;;7.47;;
12878;SDS011;20617;49.476;10.986;2023-06-26T04:17:38;8.75;;;7.85;;
12878;SDS011;20617;49.476;10.986;2023-06-26T04:19:44;9.27;;;7.53;;
12878;SDS011;20617;49.476;10.986;2023-06-26T04:21:49;8.70;;;7.80;;
12878;SDS011;20617;49.476;10.986;2023-06-26T04:23:54;8.85;;;7.95;;
12878;SDS011;20617;49.476;10.986;2023-06-26T04:25:59;10.30;;;7.97;;
12878;SDS011;20617;49.476;10.986;2023-06-26T04:28:04;8.23;;;7.43;;
12878;SDS011;20617;49.476;10.986;2023-06-26T04:30:12;8.63;;;7.20;;
12878;SDS011;20617;49.476;10.986;2023-06-26T04:32:18;8.70;;;7.80;;
12878;SDS011;20617;49.476;10.986;2023-06-26T04:34:22;7.95;;;6.88;;
12878;SDS011;20617;49.476;10.986;2023-06-26T04:36:28;7.68;;;6.88;;
12878;SDS011;20617;49.476;10.986;2023-06-26T04:38:35;10.02;;;7.88;;
12878;SDS011;20617;49.476;10.986;2023-06-26T04:40:40;13.55;;;6.88;;
12878;SDS011;20617;49.476;10.986;2023-06-26T04:42:45;8.90;;;7.22;;
12878;SDS011;20617;49.476;10.986;2023-06-26T04:44:50;7.50;;;6.80;;
12878;SDS011;20617;49.476;10.986;2023-06-26T04:46:57;9.07;;;8.00;;
12878;SDS011;20617;49.476;10.986;2023-06-26T04:49:02;8.48;;;7.60;;
12878;SDS011;20617;49.476;10.986;2023-06-26T04:51:07;8.45;;;7.43;;
12878;SDS011;20617;49.476;10.986;2023-06-26T04:53:12;8.88;;;7.97;;
12878;SDS011;20617;49.476;10.986;2023-06-26T04:55:18;7.90;;;7.10;;
12878;SDS011;20617;49.476;10.986;2023-06-26T04:59:27;9.15;;;7.20;;
12878;SDS011;20617;49.476;10.986;2023-06-26T05:01:32;7.32;;;6.57;;
12878;SDS011;20617;49.476;10.986;2023-06-26T05:03:43;7.82;;;7.03;;
12878;SDS011;20617;49.476;10.986;2023-06-26T05:05:49;7.60;;;6.72;;
12878;SDS011;20617;49.476;10.986;2023-06-26T05:10:00;7.85;;;7.07;;
12878;SDS011;20617;49.476;10.986;2023-06-26T05:14:10;8.27;;;7.35;;
12878;SDS011;20617;49.476;10.986;2023-06-26T05:18:20;8.98;;;7.22;;
12878;SDS011;20617;49.476;10.986;2023-06-26T05:20:27;8.38;;;7.43;;
12878;SDS011;20617;49.476;10.986;2023-06-26T05:22:33;8.20;;;6.85;;
12878;SDS011;20617;49.476;10.986;2023-06-26T05:24:42;7.47;;;6.50;;
12878;SDS011;20617;49.476;10.986;2023-06-26T05:26:51;8.93;;;6.07;;
12878;SDS011;20617;49.476;10.986;2023-06-26T05:28:57;7.45;;;6.75;;
12878;SDS011;20617;49.476;10.986;2023-06-26T05:31:03;6.80;;;6.10;;
12878;SDS011;20617;49.476;10.986;2023-06-26T05:33:09;8.57;;;6.68;;
12878;SDS011;20617;49.476;10.986;2023-06-26T05:35:16;7.80;;;6.65;;
12878;SDS011;20617;49.476;10.986;2023-06-26T05:37:24;8.52;;;6.57;;
12878;SDS011;20617;49.476;10.986;2023-06-26T05:39:33;7.63;;;6.82;;
12878;SDS011;20617;49.476;10.986;2023-06-26T05:41:38;8.23;;;6.40;;
12878;SDS011;20617;49.476;10.986;2023-06-26T05:43:44;10.80;;;7.65;;
12878;SDS011;20617;49.476;10.986;2023-06-26T05:47:53;9.57;;;7.95;;
12878;SDS011;20617;49.476;10.986;2023-06-26T05:49:59;7.57;;;6.78;;
12878;SDS011;20617;49.476;10.986;2023-06-26T05:52:05;8.65;;;7.35;;
12878;SDS011;20617;49.476;10.986;2023-06-26T05:54:14;9.77;;;7.43;;
12878;SDS011;20617;49.476;10.986;2023-06-26T05:56:20;12.52;;;7.50;;
12878;SDS011;20617;49.476;10.986;2023-06-26T05:58:26;7.13;;;6.43;;
12878;SDS011;20617;49.476;10.986;2023-06-26T06:00:32;7.45;;;6.53;;
12878;SDS011;20617;49.476;10.986;2023-06-26T06:02:38;7.53;;;6.45;;
12878;SDS011;20617;49.476;10.986;2023-06-26T06:04:43;7.97;;;7.18;;
12878;SDS011;20617;49.476;10.986;2023-06-26T06:06:48;7.70;;;6.93;;
12878;SDS011;20617;49.476;10.986;2023-06-26T06:08:53;8.75;;;7.30;;
12878;SDS011;20617;49.476;10.986;2023-06-26T06:11:01;7.22;;;6.53;;
12878;SDS011;20617;49.476;10.986;2023-06-26T06:13:07;8.32;;;6.97;;
12878;SDS011;20617;49.476;10.986;2023-06-26T06:17:16;8.38;;;6.30;;
12878;SDS011;20617;49.476;10.986;2023-06-26T06:21:27;7.43;;;6.57;;
12878;SDS011;20617;49.476;10.986;2023-06-26T06:25:36;7.05;;;6.22;;
12878;SDS011;20617;49.476;10.986;2023-06-26T06:27:47;6.60;;;5.95;;
12878;SDS011;20617;49.476;10.986;2023-06-26T06:29:52;7.00;;;6.30;;
12878;SDS011;20617;49.476;10.986;2023-06-26T06:34:01;7.45;;;6.70;;
12878;SDS011;20617;49.476;10.986;2023-06-26T06:38:11;7.05;;;6.35;;
12878;SDS011;20617;49.476;10.986;2023-06-26T06:42:23;7.72;;;6.93;;
12878;SDS011;20617;49.476;10.986;2023-06-26T06:44:31;9.27;;;6.43;;
12878;SDS011;20617;49.476;10.986;2023-06-26T06:46:36;6.80;;;6.13;;
12878;SDS011;20617;49.476;10.986;2023-06-26T06:50:45;7.03;;;6.18;;
12878;SDS011;20617;49.476;10.986;2023-06-26T06:54:56;7.60;;;6.07;;
12878;SDS011;20617;49.476;10.986;2023-06-26T06:57:07;7.68;;;6.90;;
12878;SDS011;20617;49.476;10.986;2023-06-26T07:01:20;6.63;;;5.93;;
12878;SDS011;20617;49.476;10.986;2023-06-26T07:03:25;6.97;;;6.00;;
12878;SDS011;20617;49.476;10.986;2023-06-26T07:05:30;8.88;;;6.15;;
12878;SDS011;20617;49.476;10.986;2023-06-26T07:09:43;7.55;;;6.40;;
12878;SDS011;20617;49.476;10.986;2023-06-26T07:11:48;7.28;;;6.53;;
12878;SDS011;20617;49.476;10.986;2023-06-26T07:15:57;7.03;;;6.32;;
12878;SDS011;20617;49.476;10.986;2023-06-26T07:18:05;8.00;;;6.25;;
12878;SDS011;20617;49.476;10.986;2023-06-26T07:20:10;6.70;;;6.00;;
12878;SDS011;20617;49.476;10.986;2023-06-26T07:22:17;6.50;;;5.90;;
12878;SDS011;20617;49.476;10.986;2023-06-26T07:24:22;6.85;;;6.13;;
12878;SDS011;20617;49.476;10.986;2023-06-26T07:28:46;6.63;;;5.90;;
12878;SDS011;20617;49.476;10.986;2023-06-26T07:30:51;7.00;;;5.68;;
12878;SDS011;20617;49.476;10.986;2023-06-26T07:32:56;6.80;;;6.00;;
12878;SDS011;20617;49.476;10.986;2023-06-26T07:35:04;7.22;;;6.53;;
12878;SDS011;20617;49.476;10.986;2023-06-26T07:37:09;7.32;;;6.53;;
12878;SDS011;20617;49.476;10.986;2023-06-26T07:41:24;8.18;;;6.00;;
12878;SDS011;20617;49.476;10.986;2023-06-26T07:43:32;8.07;;;6.25;;
12878;SDS011;20617;49.476;10.986;2023-06-26T07:45:37;8.20;;;6.68;;
12878;SDS011;20617;49.476;10.986;2023-06-26T07:47:42;6.82;;;6.13;;
12878;SDS011;20617;49.476;10.986;2023-06-26T07:49:48;7.45;;;6.68;;
12878;SDS011;20617;49.476;10.986;2023-06-26T07:54:00;7.68;;;6.32;;
12878;SDS011;20617;49.476;10.986;2023-06-26T07:58:11;10.18;;;6.72;;
12878;SDS011;20617;49.476;10.986;2023-06-26T08:02:26;6.93;;;6.10;;
12878;SDS011;20617;49.476;10.986;2023-06-26T08:04:31;6.85;;;6.15;;
12878;SDS011;20617;49.476;10.986;2023-06-26T08:06:36;7.78;;;6.25;;
12878;SDS011;20617;49.476;10.986;2023-06-26T08:08:44;9.88;;;7.05;;
12878;SDS011;20617;49.476;10.986;2023-06-26T08:10:49;8.00;;;7.20;;
12878;SDS011;20617;49.476;10.986;2023-06-26T08:12:54;6.60;;;5.93;;
12878;SDS011;20617;49.476;10.986;2023-06-26T08:15:00;8.20;;;6.82;;
12878;SDS011;20617;49.476;10.986;2023-06-26T08:17:08;6.50;;;5.90;;
12878;SDS011;20617;49.476;10.986;2023-06-26T08:19:13;6.22;;;5.63;;
12878;SDS011;20617;49.476;10.986;2023-06-26T08:21:18;8.15;;;7.32;;
12878;SDS011;20617;49.476;10.986;2023-06-26T08:23:26;8.80;;;6.95;;
12878;SDS011;20617;49.476;10.986;2023-06-26T08:25:34;7.47;;;6.78;;
12878;SDS011;20617;49.476;10.986;2023-06-26T08:27:39;7.97;;;5.80;;
12878;SDS011;20617;49.476;10.986;2023-06-26T08:29:44;6.50;;;5.80;;
12878;SDS011;20617;49.476;10.986;2023-06-26T08:31:49;7.25;;;6.55;;
12878;SDS011;20617;49.476;10.986;2023-06-26T08:33:54;9.32;;;7.22;;
12878;SDS011;20617;49.476;10.986;2023-06-26T08:36:03;10.25;;;7.13;;
12878;SDS011;20617;49.476;10.986;2023-06-26T08:38:08;9.15;;;5.60;;
12878;SDS011;20617;49.476;10.986;2023-06-26T08:40:13;8.95;;;6.85;;
12878;SDS011;20617;49.476;10.986;2023-06-26T08:42:24;9.35;;;6.93;;
12878;SDS011;20617;49.476;10.986;2023-06-26T08:44:29;7.05;;;6.38;;
12878;SDS011;20617;49.476;10.986;2023-06-26T08:46:34;6.90;;;6.20;;
12878;SDS011;20617;49.476;10.986;2023-06-26T08:48:41;6.60;;;5.93;;
12878;SDS011;20617;49.476;10.986;2023-06-26T08:50:51;6.55;;;5.95;;
12878;SDS011;20617;49.476;10.986;2023-06-26T08:52:59;11.10;;;7.20;;
12878;SDS011;20617;49.476;10.986;2023-06-26T08:55:09;10.07;;;7.35;;
12878;SDS011;20617;49.476;10.986;2023-06-26T08:57:15;17.17;;;6.93;;
12878;SDS011;20617;49.476;10.986;2023-06-26T08:59:25;9.50;;;6.88;;
12878;SDS011;20617;49.476;10.986;2023-06-26T09:01:31;9.05;;;7.00;;
12878;SDS011;20617;49.476;10.986;2023-06-26T09:03:36;9.52;;;6.07;;
12878;SDS011;20617;49.476;10.986;2023-06-26T09:05:43;6.57;;;5.90;;
12878;SDS011;20617;49.476;10.986;2023-06-26T09:07:48;6.57;;;5.90;;
12878;SDS011;20617;49.476;10.986;2023-06-26T09:09:59;6.50;;;5.90;;
12878;SDS011;20617;49.476;10.986;2023-06-26T09:12:04;10.75;;;6.90;;
12878;SDS011;20617;49.476;10.986;2023-06-26T09:14:09;6.28;;;5.68;;
12878;SDS011;20617;49.476;10.986;2023-06-26T09:16:17;5.80;;;5.30;;
12878;SDS011;20617;49.476;10.986;2023-06-26T09:18:28;6.88;;;6.15;;
12878;SDS011;20617;49.476;10.986;2023-06-26T09:20:33;6.18;;;5.57;;
12878;SDS011;20617;49.476;10.986;2023-06-26T09:22:40;9.18;;;6.82;;
12878;SDS011;20617;49.476;10.986;2023-06-26T09:24:45;9.50;;;6.63;;
12878;SDS011;20617;49.476;10.986;2023-06-26T09:26:51;8.55;;;6.45;;
12878;SDS011;20617;49.476;10.986;2023-06-26T09:28:56;11.73;;;7.38;;
12878;SDS011;20617;49.476;10.986;2023-06-26T09:31:02;12.45;;;6.30;;
12878;SDS011;20617;49.476;10.986;2023-06-26T09:33:16;8.65;;;6.07;;
12878;SDS011;20617;49.476;10.986;2023-06-26T09:35:23;6.50;;;5.82;;
12878;SDS011;20617;49.476;10.986;2023-06-26T09:37:28;10.18;;;6.63;;
12878;SDS011;20617;49.476;10.986;2023-06-26T09:39:33;7.13;;;6.15;;
12878;SDS011;20617;49.476;10.986;2023-06-26T09:41:38;6.00;;;5.40;;
12878;SDS011;20617;49.476;10.986;2023-06-26T09:43:47;6.50;;;5.88;;
12878;SDS011;20617;49.476;10.986;2023-06-26T09:45:53;6.90;;;6.07;;
12878;SDS011;20617;49.476;10.986;2023-06-26T09:47:59;6.35;;;5.75;;
12878;SDS011;20617;49.476;10.986;2023-06-26T09:50:09;6.78;;;6.07;;
12878;SDS011;20617;49.476;10.986;2023-06-26T09:52:29;9.27;;;6.45;;
12878;SDS011;20617;49.476;10.986;2023-06-26T09:54:36;9.32;;;6.00;;
12878;SDS011;20617;49.476;10.986;2023-06-26T09:56:42;6.93;;;5.85;;
12878;SDS011;20617;49.476;10.986;2023-06-26T09:58:47;7.18;;;6.47;;
12878;SDS011;20617;49.476;10.986;2023-06-26T10:00:53;7.10;;;5.95;;
12878;SDS011;20617;49.476;10.986;2023-06-26T10:02:58;6.82;;;5.80;;
12878;SDS011;20617;49.476;10.986;2023-06-26T10:05:04;7.40;;;6.55;;
12878;SDS011;20617;49.476;10.986;2023-06-26T10:07:12;6.47;;;5.78;;
12878;SDS011;20617;49.476;10.986;2023-06-26T10:09:19;13.10;;;6.47;;
12878;SDS011;20617;49.476;10.986;2023-06-26T10:11:30;8.63;;;6.13;;
12878;SDS011;20617;49.476;10.986;2023-06-26T10:13:42;6.50;;;5.90;;
12878;SDS011;20617;49.476;10.986;2023-06-26T10:15:50;7.22;;;6.47;;
12878;SDS011;20617;49.476;10.986;2023-06-26T10:17:56;8.35;;;6.25;;
12878;SDS011;20617;49.476;10.986;2023-06-26T10:20:02;6.25;;;5.65;;
12878;SDS011;20617;49.476;10.986;2023-06-26T10:22:08;8.77;;;7.28;;
12878;SDS011;20617;49.476;10.986;2023-06-26T10:24:17;7.40;;;5.95;;
12878;SDS011;20617;49.476;10.986;2023-06-26T10:26:27;7.13;;;6.20;;
12878;SDS011;20617;49.476;10.986;2023-06-26T10:28:32;5.93;;;5.43;;
12878;SDS011;20617;49.476;10.986;2023-06-26T10:30:38;7.25;;;5.18;;
12878;SDS011;20617;49.476;10.986;2023-06-26T10:32:44;7.03;;;6.28;;
12878;SDS011;20617;49.476;10.986;2023-06-26T10:34:51;7.03;;;6.32;;
12878;SDS011;20617;49.476;10.986;2023-06-26T10:37:00;6.88;;;6.18;;
12878;SDS011;20617;49.476;10.986;2023-06-26T10:39:06;6.30;;;5.70;;
12878;SDS011;20617;49.476;10.986;2023-06-26T10:41:14;6.60;;;5.85;;
12878;SDS011;20617;49.476;10.986;2023-06-26T10:43:29;9.20;;;6.57;;
12878;SDS011;20617;49.476;10.986;2023-06-26T10:45:34;7.03;;;5.95;;
12878;SDS011;20617;49.476;10.986;2023-06-26T10:47:41;6.05;;;5.45;;
12878;SDS011;20617;49.476;10.986;2023-06-26T10:49:50;7.82;;;6.28;;
12878;SDS011;20617;49.476;10.986;2023-06-26T10:52:12;8.35;;;6.70;;
12878;SDS011;20617;49.476;10.986;2023-06-26T10:54:17;8.27;;;5.97;;
12878;SDS011;20617;49.476;10.986;2023-06-26T10:58:49;7.13;;;6.22;;
12878;SDS011;20617;49.476;10.986;2023-06-26T11:01:04;7.07;;;6.35;;
12878;SDS011;20617;49.476;10.986;2023-06-26T11:03:22;8.25;;;7.25;;
12878;SDS011;20617;49.476;10.986;2023-06-26T11:05:29;6.72;;;6.13;;
12878;SDS011;20617;49.476;10.986;2023-06-26T11:07:37;6.68;;;6.07;;
12878;SDS011;20617;49.476;10.986;2023-06-26T11:10:08;7.40;;;5.95;;
12878;SDS011;20617;49.476;10.986;2023-06-26T11:12:16;8.65;;;5.72;;
12878;SDS011;20617;49.476;10.986;2023-06-26T11:14:38;7.97;;;5.13;;
12878;SDS011;20617;49.476;10.986;2023-06-26T11:16:44;10.18;;;5.45;;
12878;SDS011;20617;49.476;10.986;2023-06-26T11:18:50;6.47;;;5.60;;
12878;SDS011;20617;49.476;10.986;2023-06-26T11:21:03;7.82;;;5.60;;
12878;SDS011;20617;49.476;10.986;2023-06-26T11:23:09;7.13;;;5.85;;
12878;SDS011;20617;49.476;10.986;2023-06-26T11:25:14;9.32;;;5.32;;
12878;SDS011;20617;49.476;10.986;2023-06-26T11:27:22;10.20;;;6.22;;
12878;SDS011;20617;49.476;10.986;2023-06-26T11:29:28;5.93;;;5.32;;
12878;SDS011;20617;49.476;10.986;2023-06-26T11:31:36;6.47;;;5.57;;
12878;SDS011;20617;49.476;10.986;2023-06-26T11:33:45;5.63;;;5.10;;
12878;SDS011;20617;49.476;10.986;2023-06-26T11:35:50;5.28;;;4.78;;
12878;SDS011;20617;49.476;10.986;2023-06-26T11:37:55;6.68;;;5.25;;
12878;SDS011;20617;49.476;10.986;2023-06-26T11:40:18;6.60;;;4.72;;
12878;SDS011;20617;49.476;10.986;2023-06-26T11:42:31;6.88;;;4.75;;
12878;SDS011;20617;49.476;10.986;2023-06-26T11:44:39;5.50;;;5.00;;
12878;SDS011;20617;49.476;10.986;2023-06-26T11:46:51;5.13;;;4.63;;
12878;SDS011;20617;49.476;10.986;2023-06-26T11:48:57;5.60;;;5.10;;
12878;SDS011;20617;49.476;10.986;2023-06-26T11:51:03;10.48;;;5.82;;
12878;SDS011;20617;49.476;10.986;2023-06-26T11:53:08;8.98;;;4.82;;
12878;SDS011;20617;49.476;10.986;2023-06-26T11:55:13;5.78;;;5.05;;
12878;SDS011;20617;49.476;10.986;2023-06-26T11:57:18;5.05;;;4.55;;
12878;SDS011;20617;49.476;10.986;2023-06-26T11:59:31;4.45;;;4.05;;
12878;SDS011;20617;49.476;10.986;2023-06-26T12:01:38;4.85;;;4.13;;
12878;SDS011;20617;49.476;10.986;2023-06-26T12:03:46;5.00;;;4.50;;
12878;SDS011;20617;49.476;10.986;2023-06-26T12:05:51;5.63;;;4.50;;
12878;SDS011;20617;49.476;10.986;2023-06-26T12:07:57;4.68;;;4.10;;
12878;SDS011;20617;49.476;10.986;2023-06-26T12:10:03;6.20;;;4.50;;
12878;SDS011;20617;49.476;10.986;2023-06-26T12:12:10;5.38;;;4.53;;
12878;SDS011;20617;49.476;10.986;2023-06-26T12:14:15;4.80;;;4.30;;
12878;SDS011;20617;49.476;10.986;2023-06-26T12:16:24;5.75;;;4.53;;
12878;SDS011;20617;49.476;10.986;2023-06-26T12:18:32;13.10;;;4.53;;
12878;SDS011;20617;49.476;10.986;2023-06-26T12:20:39;5.32;;;4.60;;
12878;SDS011;20617;49.476;10.986;2023-06-26T12:22:45;4.93;;;4.43;;
12878;SDS011;20617;49.476;10.986;2023-06-26T12:24:50;4.32;;;3.90;;
12878;SDS011;20617;49.476;10.986;2023-06-26T12:26:56;5.78;;;4.35;;
12878;SDS011;20617;49.476;10.986;2023-06-26T12:29:04;5.32;;;4.22;;
12878;SDS011;20617;49.476;10.986;2023-06-26T12:31:13;5.32;;;4.80;;
12878;SDS011;20617;49.476;10.986;2023-06-26T12:33:21;5.45;;;4.35;;
12878;SDS011;20617;49.476;10.986;2023-06-26T12:35:26;5.97;;;4.57;;
12878;SDS011;20617;49.476;10.986;2023-06-26T12:37:36;8.38;;;4.72;;
12878;SDS011;20617;49.476;10.986;2023-06-26T12:39:48;6.15;;;4.63;;
12878;SDS011;20617;49.476;10.986;2023-06-26T12:41:54;5.13;;;4.60;;
12878;SDS011;20617;49.476;10.986;2023-06-26T12:44:03;5.22;;;4.70;;
12878;SDS011;20617;49.476;10.986;2023-06-26T12:46:08;7.15;;;3.85;;
12878;SDS011;20617;49.476;10.986;2023-06-26T12:48:14;6.38;;;4.65;;
12878;SDS011;20617;49.476;10.986;2023-06-26T12:50:23;8.40;;;4.85;;
12878;SDS011;20617;49.476;10.986;2023-06-26T12:52:28;5.32;;;4.70;;
12878;SDS011;20617;49.476;10.986;2023-06-26T12:54:33;5.32;;;4.72;;
12878;SDS011;20617;49.476;10.986;2023-06-26T12:56:39;4.82;;;4.32;;
12878;SDS011;20617;49.476;10.986;2023-06-26T12:58:47;9.07;;;5.13;;
12878;SDS011;20617;49.476;10.986;2023-06-26T13:00:52;8.20;;;4.78;;
12878;SDS011;20617;49.476;10.986;2023-06-26T13:02:59;7.68;;;5.10;;
12878;SDS011;20617;49.476;10.986;2023-06-26T13:05:05;9.55;;;4.75;;
12878;SDS011;20617;49.476;10.986;2023-06-26T13:07:13;7.65;;;5.00;;
12878;SDS011;20617;49.476;10.986;2023-06-26T13:09:18;7.15;;;5.22;;
12878;SDS011;20617;49.476;10.986;2023-06-26T13:11:26;7.00;;;5.60;;
12878;SDS011;20617;49.476;10.986;2023-06-26T13:13:32;8.60;;;5.40;;
12878;SDS011;20617;49.476;10.986;2023-06-26T13:15:37;14.05;;;6.22;;
12878;SDS011;20617;49.476;10.986;2023-06-26T13:17:43;7.40;;;5.40;;
12878;SDS011;20617;49.476;10.986;2023-06-26T13:19:51;8.80;;;5.57;;
12878;SDS011;20617;49.476;10.986;2023-06-26T13:21:56;5.68;;;4.97;;
12878;SDS011;20617;49.476;10.986;2023-06-26T13:24:05;8.40;;;5.90;;
12878;SDS011;20617;49.476;10.986;2023-06-26T13:26:11;7.00;;;5.50;;
12878;SDS011;20617;49.476;10.986;2023-06-26T13:28:36;7.82;;;5.25;;
12878;SDS011;20617;49.476;10.986;2023-06-26T13:30:42;5.68;;;4.88;;
12878;SDS011;20617;49.476;10.986;2023-06-26T13:32:48;7.55;;;6.20;;
12878;SDS011;20617;49.476;10.986;2023-06-26T13:34:53;6.50;;;5.15;;
12878;SDS011;20617;49.476;10.986;2023-06-26T13:36:59;7.65;;;5.85;;
12878;SDS011;20617;49.476;10.986;2023-06-26T13:39:07;9.43;;;5.47;;
12878;SDS011;20617;49.476;10.986;2023-06-26T13:41:12;7.65;;;5.07;;
12878;SDS011;20617;49.476;10.986;2023-06-26T13:43:17;5.93;;;5.15;;
12878;SDS011;20617;49.476;10.986;2023-06-26T13:45:24;5.95;;;5.18;;
12878;SDS011;20617;49.476;10.986;2023-06-26T13:47:32;5.20;;;4.70;;
12878;SDS011;20617;49.476;10.986;2023-06-26T13:49:42;5.57;;;4.80;;
12878;SDS011;20617;49.476;10.986;2023-06-26T13:51:47;11.40;;;4.55;;
12878;SDS011;20617;49.476;10.986;2023-06-26T13:53:52;14.70;;;6.10;;
12878;SDS011;20617;49.476;10.986;2023-06-26T13:56:04;5.63;;;5.07;;